sensor_id;sensor_type;location;lat;lon;timestamp;P1;durP1;ratioP1;P2;durP2;ratioP2
14165;SDS011;7162;52.422;13.754;2023-04-28T00:01:17;4.30;;;2.90;;
14165;SDS011;7162;52.422;13.754;2023-04-28T00:03:44;4.33;;;2.77;;
14165;SDS011;7162;52.422;13.754;2023-04-28T00:06:12;6.60;;;3.50;;
14165;SDS011;7162;52.422;13.754;2023-04-28T00:08:39;7.60;;;3.00;;
14165;SDS011;7162;52.422;13.754;2023-04-28T00:11:08;8.30;;;3.73;;
14165;SDS011;7162;52.422;13.754;2023-04-28T00:13:35;6.60;;;2.80;;
14165;SDS011;7162;52.422;13.754;2023-04-28T00:16:03;5.27;;;3.10;;
14165;SDS011;7162;52.422;13.754;2023-04-28T00:18:30;10.33;;;2.37;;
14165;SDS011;7162;52.422;13.754;2023-04-28T00:20:58;3.70;;;2.50;;
14165;SDS011;7162;52.422;13.754;2023-04-28T00:23:25;4.47;;;3.23;;
14165;SDS011;7162;52.422;13.754;2023-04-28T00:25:52;3.73;;;3.03;;
14165;SDS011;7162;52.422;13.754;2023-04-28T00:28:20;6.43;;;3.20;;
14165;SDS011;7162;52.422;13.754;2023-04-28T00:30:47;11.87;;;3.27;;
14165;SDS011;7162;52.422;13.754;2023-04-28T00:33:16;3.83;;;2.50;;
14165;SDS011;7162;52.422;13.754;2023-04-28T00:35:42;3.47;;;2.40;;
14165;SDS011;7162;52.422;13.754;2023-04-28T00:38:10;5.00;;;3.37;;
14165;SDS011;7162;52.422;13.754;2023-04-28T00:40:37;5.73;;;2.40;;
14165;SDS011;7162;52.422;13.754;2023-04-28T00:43:05;5.07;;;2.50;;
14165;SDS011;7162;52.422;13.754;2023-04-28T00:45:32;2.90;;;2.50;;
14165;SDS011;7162;52.422;13.754;2023-04-28T00:47:59;4.07;;;2.67;;
14165;SDS011;7162;52.422;13.754;2023-04-28T00:50:27;4.07;;;2.60;;
14165;SDS011;7162;52.422;13.754;2023-04-28T00:52:54;6.20;;;2.57;;
14165;SDS011;7162;52.422;13.754;2023-04-28T00:55:21;4.40;;;1.93;;
14165;SDS011;7162;52.422;13.754;2023-04-28T00:57:50;3.07;;;2.50;;
14165;SDS011;7162;52.422;13.754;2023-04-28T01:00:17;3.60;;;2.30;;
14165;SDS011;7162;52.422;13.754;2023-04-28T01:02:44;4.20;;;2.30;;
14165;SDS011;7162;52.422;13.754;2023-04-28T01:05:11;4.77;;;2.37;;
14165;SDS011;7162;52.422;13.754;2023-04-28T01:07:40;3.87;;;2.37;;
14165;SDS011;7162;52.422;13.754;2023-04-28T01:10:08;2.40;;;2.00;;
14165;SDS011;7162;52.422;13.754;2023-04-28T01:12:35;2.90;;;2.30;;
14165;SDS011;7162;52.422;13.754;2023-04-28T01:15:02;7.60;;;2.60;;
14165;SDS011;7162;52.422;13.754;2023-04-28T01:17:29;2.77;;;2.20;;
14165;SDS011;7162;52.422;13.754;2023-04-28T01:19:56;2.30;;;2.00;;
14165;SDS011;7162;52.422;13.754;2023-04-28T01:22:23;2.87;;;2.40;;
14165;SDS011;7162;52.422;13.754;2023-04-28T01:24:52;2.40;;;2.20;;
14165;SDS011;7162;52.422;13.754;2023-04-28T01:27:18;2.63;;;2.40;;
14165;SDS011;7162;52.422;13.754;2023-04-28T01:29:47;6.80;;;2.60;;
14165;SDS011;7162;52.422;13.754;2023-04-28T01:32:14;2.67;;;2.13;;
14165;SDS011;7162;52.422;13.754;2023-04-28T01:34:41;4.83;;;2.30;;
14165;SDS011;7162;52.422;13.754;2023-04-28T01:37:08;3.97;;;2.47;;
14165;SDS011;7162;52.422;13.754;2023-04-28T01:39:35;8.07;;;2.80;;
14165;SDS011;7162;52.422;13.754;2023-04-28T01:42:03;11.20;;;2.23;;
14165;SDS011;7162;52.422;13.754;2023-04-28T01:44:30;1.97;;;1.77;;
14165;SDS011;7162;52.422;13.754;2023-04-28T01:46:57;4.00;;;2.37;;
14165;SDS011;7162;52.422;13.754;2023-04-28T01:49:25;3.63;;;2.30;;
14165;SDS011;7162;52.422;13.754;2023-04-28T01:51:51;6.03;;;2.20;;
14165;SDS011;7162;52.422;13.754;2023-04-28T01:54:19;2.80;;;2.33;;
14165;SDS011;7162;52.422;13.754;2023-04-28T01:56:45;3.00;;;2.47;;
14165;SDS011;7162;52.422;13.754;2023-04-28T01:59:14;2.83;;;2.50;;
14165;SDS011;7162;52.422;13.754;2023-04-28T02:01:41;4.97;;;2.80;;
14165;SDS011;7162;52.422;13.754;2023-04-28T02:04:08;4.20;;;2.50;;
14165;SDS011;7162;52.422;13.754;2023-04-28T02:06:35;3.00;;;2.00;;
14165;SDS011;7162;52.422;13.754;2023-04-28T02:09:02;2.90;;;2.30;;
14165;SDS011;7162;52.422;13.754;2023-04-28T02:11:29;6.50;;;2.73;;
14165;SDS011;7162;52.422;13.754;2023-04-28T02:13:56;12.80;;;2.40;;
14165;SDS011;7162;52.422;13.754;2023-04-28T02:16:24;4.30;;;2.73;;
14165;SDS011;7162;52.422;13.754;2023-04-28T02:18:51;5.23;;;2.37;;
14165;SDS011;7162;52.422;13.754;2023-04-28T02:21:18;4.07;;;2.70;;
14165;SDS011;7162;52.422;13.754;2023-04-28T02:23:45;3.30;;;2.47;;
14165;SDS011;7162;52.422;13.754;2023-04-28T02:26:12;3.93;;;2.33;;
14165;SDS011;7162;52.422;13.754;2023-04-28T02:28:39;4.27;;;2.80;;
14165;SDS011;7162;52.422;13.754;2023-04-28T02:31:06;4.27;;;2.27;;
14165;SDS011;7162;52.422;13.754;2023-04-28T02:33:35;3.57;;;2.73;;
14165;SDS011;7162;52.422;13.754;2023-04-28T02:36:02;3.00;;;2.57;;
14165;SDS011;7162;52.422;13.754;2023-04-28T02:38:30;3.70;;;2.37;;
14165;SDS011;7162;52.422;13.754;2023-04-28T02:40:57;4.77;;;2.60;;
14165;SDS011;7162;52.422;13.754;2023-04-28T02:43:24;6.50;;;2.50;;
14165;SDS011;7162;52.422;13.754;2023-04-28T02:45:52;4.70;;;2.50;;
14165;SDS011;7162;52.422;13.754;2023-04-28T02:48:19;2.70;;;2.27;;
14165;SDS011;7162;52.422;13.754;2023-04-28T02:50:47;3.57;;;2.60;;
14165;SDS011;7162;52.422;13.754;2023-04-28T02:53:14;3.60;;;2.50;;
14165;SDS011;7162;52.422;13.754;2023-04-28T02:55:41;2.43;;;2.23;;
14165;SDS011;7162;52.422;13.754;2023-04-28T02:58:08;4.40;;;2.30;;
14165;SDS011;7162;52.422;13.754;2023-04-28T03:00:35;4.07;;;2.50;;
14165;SDS011;7162;52.422;13.754;2023-04-28T03:03:02;2.50;;;2.03;;
14165;SDS011;7162;52.422;13.754;2023-04-28T03:05:29;2.47;;;1.97;;
14165;SDS011;7162;52.422;13.754;2023-04-28T03:07:57;2.73;;;2.07;;
14165;SDS011;7162;52.422;13.754;2023-04-28T03:10:24;2.60;;;2.30;;
14165;SDS011;7162;52.422;13.754;2023-04-28T03:12:51;3.33;;;2.33;;
14165;SDS011;7162;52.422;13.754;2023-04-28T03:15:18;2.77;;;2.20;;
14165;SDS011;7162;52.422;13.754;2023-04-28T03:17:45;5.37;;;2.57;;
14165;SDS011;7162;52.422;13.754;2023-04-28T03:20:12;4.03;;;3.00;;
14165;SDS011;7162;52.422;13.754;2023-04-28T03:22:39;7.50;;;2.70;;
14165;SDS011;7162;52.422;13.754;2023-04-28T03:25:08;4.00;;;2.20;;
14165;SDS011;7162;52.422;13.754;2023-04-28T03:27:35;3.30;;;2.60;;
14165;SDS011;7162;52.422;13.754;2023-04-28T03:30:02;4.33;;;2.00;;
14165;SDS011;7162;52.422;13.754;2023-04-28T03:32:29;2.87;;;2.10;;
14165;SDS011;7162;52.422;13.754;2023-04-28T03:34:56;4.17;;;2.40;;
14165;SDS011;7162;52.422;13.754;2023-04-28T03:37:23;4.77;;;2.60;;
14165;SDS011;7162;52.422;13.754;2023-04-28T03:39:50;4.30;;;2.23;;
14165;SDS011;7162;52.422;13.754;2023-04-28T03:42:18;6.17;;;2.67;;
14165;SDS011;7162;52.422;13.754;2023-04-28T03:44:45;5.30;;;2.67;;
14165;SDS011;7162;52.422;13.754;2023-04-28T03:47:12;2.50;;;1.97;;
14165;SDS011;7162;52.422;13.754;2023-04-28T03:49:39;5.13;;;3.20;;
14165;SDS011;7162;52.422;13.754;2023-04-28T03:52:06;14.30;;;3.03;;
14165;SDS011;7162;52.422;13.754;2023-04-28T03:54:33;5.93;;;3.00;;
14165;SDS011;7162;52.422;13.754;2023-04-28T03:57:00;19.27;;;2.70;;
14165;SDS011;7162;52.422;13.754;2023-04-28T03:59:29;6.13;;;2.93;;
14165;SDS011;7162;52.422;13.754;2023-04-28T04:01:57;4.37;;;2.70;;
14165;SDS011;7162;52.422;13.754;2023-04-28T04:04:24;8.63;;;2.47;;
14165;SDS011;7162;52.422;13.754;2023-04-28T04:06:51;7.43;;;2.57;;
14165;SDS011;7162;52.422;13.754;2023-04-28T04:09:18;3.67;;;2.63;;
14165;SDS011;7162;52.422;13.754;2023-04-28T04:11:45;4.00;;;3.10;;
14165;SDS011;7162;52.422;13.754;2023-04-28T04:14:12;11.63;;;2.73;;
14165;SDS011;7162;52.422;13.754;2023-04-28T04:16:40;4.20;;;2.20;;
14165;SDS011;7162;52.422;13.754;2023-04-28T04:19:07;2.90;;;2.17;;
14165;SDS011;7162;52.422;13.754;2023-04-28T04:21:34;12.50;;;2.50;;
14165;SDS011;7162;52.422;13.754;2023-04-28T04:24:01;10.93;;;3.47;;
14165;SDS011;7162;52.422;13.754;2023-04-28T04:26:28;4.13;;;2.87;;
14165;SDS011;7162;52.422;13.754;2023-04-28T04:28:55;4.40;;;2.87;;
14165;SDS011;7162;52.422;13.754;2023-04-28T04:31:22;4.60;;;2.90;;
14165;SDS011;7162;52.422;13.754;2023-04-28T04:33:50;5.40;;;2.60;;
14165;SDS011;7162;52.422;13.754;2023-04-28T04:36:17;5.93;;;3.40;;
14165;SDS011;7162;52.422;13.754;2023-04-28T04:38:44;4.60;;;2.97;;
14165;SDS011;7162;52.422;13.754;2023-04-28T04:41:11;5.10;;;3.50;;
14165;SDS011;7162;52.422;13.754;2023-04-28T04:43:39;7.27;;;2.93;;
14165;SDS011;7162;52.422;13.754;2023-04-28T04:46:06;5.07;;;3.20;;
14165;SDS011;7162;52.422;13.754;2023-04-28T04:48:33;4.47;;;2.80;;
14165;SDS011;7162;52.422;13.754;2023-04-28T04:51:01;4.40;;;2.67;;
14165;SDS011;7162;52.422;13.754;2023-04-28T04:53:28;6.20;;;2.90;;
14165;SDS011;7162;52.422;13.754;2023-04-28T04:55:55;6.13;;;2.87;;
14165;SDS011;7162;52.422;13.754;2023-04-28T04:58:22;5.07;;;3.33;;
14165;SDS011;7162;52.422;13.754;2023-04-28T05:00:49;5.53;;;3.03;;
14165;SDS011;7162;52.422;13.754;2023-04-28T05:03:16;4.07;;;2.63;;
14165;SDS011;7162;52.422;13.754;2023-04-28T05:05:43;4.97;;;2.67;;
14165;SDS011;7162;52.422;13.754;2023-04-28T05:08:11;6.23;;;3.00;;
14165;SDS011;7162;52.422;13.754;2023-04-28T05:10:38;4.67;;;3.13;;
14165;SDS011;7162;52.422;13.754;2023-04-28T05:13:05;2.60;;;2.20;;
14165;SDS011;7162;52.422;13.754;2023-04-28T05:15:32;4.83;;;2.50;;
14165;SDS011;7162;52.422;13.754;2023-04-28T05:17:59;6.40;;;2.93;;
14165;SDS011;7162;52.422;13.754;2023-04-28T05:20:32;9.67;;;4.73;;
14165;SDS011;7162;52.422;13.754;2023-04-28T05:22:59;5.37;;;2.93;;
14165;SDS011;7162;52.422;13.754;2023-04-28T05:25:28;4.30;;;3.13;;
14165;SDS011;7162;52.422;13.754;2023-04-28T05:27:55;5.97;;;3.13;;
14165;SDS011;7162;52.422;13.754;2023-04-28T05:30:22;6.10;;;3.03;;
14165;SDS011;7162;52.422;13.754;2023-04-28T05:32:49;5.80;;;2.50;;
14165;SDS011;7162;52.422;13.754;2023-04-28T05:35:16;5.83;;;2.83;;
14165;SDS011;7162;52.422;13.754;2023-04-28T05:37:44;3.73;;;2.17;;
14165;SDS011;7162;52.422;13.754;2023-04-28T05:40:11;6.53;;;2.80;;
14165;SDS011;7162;52.422;13.754;2023-04-28T05:42:39;5.90;;;2.57;;
14165;SDS011;7162;52.422;13.754;2023-04-28T05:45:07;3.80;;;2.70;;
14165;SDS011;7162;52.422;13.754;2023-04-28T05:47:34;5.83;;;2.90;;
14165;SDS011;7162;52.422;13.754;2023-04-28T05:50:01;2.90;;;2.57;;
14165;SDS011;7162;52.422;13.754;2023-04-28T05:52:28;3.63;;;2.70;;
14165;SDS011;7162;52.422;13.754;2023-04-28T05:54:55;4.37;;;2.80;;
14165;SDS011;7162;52.422;13.754;2023-04-28T05:57:22;8.60;;;3.90;;
14165;SDS011;7162;52.422;13.754;2023-04-28T05:59:50;5.47;;;3.10;;
14165;SDS011;7162;52.422;13.754;2023-04-28T06:02:17;10.73;;;3.77;;
14165;SDS011;7162;52.422;13.754;2023-04-28T06:04:44;5.43;;;3.43;;
14165;SDS011;7162;52.422;13.754;2023-04-28T06:07:11;8.17;;;3.20;;
14165;SDS011;7162;52.422;13.754;2023-04-28T06:09:38;3.60;;;2.27;;
14165;SDS011;7162;52.422;13.754;2023-04-28T06:12:06;4.57;;;2.17;;
14165;SDS011;7162;52.422;13.754;2023-04-28T06:14:33;7.37;;;2.83;;
14165;SDS011;7162;52.422;13.754;2023-04-28T06:17:03;9.57;;;2.27;;
14165;SDS011;7162;52.422;13.754;2023-04-28T06:19:30;6.90;;;3.40;;
14165;SDS011;7162;52.422;13.754;2023-04-28T06:21:57;5.83;;;2.33;;
14165;SDS011;7162;52.422;13.754;2023-04-28T06:24:24;8.63;;;3.40;;
14165;SDS011;7162;52.422;13.754;2023-04-28T06:26:51;9.73;;;2.40;;
14165;SDS011;7162;52.422;13.754;2023-04-28T06:29:18;5.57;;;2.50;;
14165;SDS011;7162;52.422;13.754;2023-04-28T06:31:47;4.13;;;2.20;;
14165;SDS011;7162;52.422;13.754;2023-04-28T06:34:15;5.60;;;2.23;;
14165;SDS011;7162;52.422;13.754;2023-04-28T06:36:42;6.63;;;2.50;;
14165;SDS011;7162;52.422;13.754;2023-04-28T06:39:09;28.43;;;2.90;;
14165;SDS011;7162;52.422;13.754;2023-04-28T06:41:36;6.90;;;2.67;;
14165;SDS011;7162;52.422;13.754;2023-04-28T06:44:03;6.73;;;2.80;;
14165;SDS011;7162;52.422;13.754;2023-04-28T06:46:30;8.57;;;2.53;;
14165;SDS011;7162;52.422;13.754;2023-04-28T06:48:57;4.63;;;2.53;;
14165;SDS011;7162;52.422;13.754;2023-04-28T06:51:26;9.83;;;3.60;;
14165;SDS011;7162;52.422;13.754;2023-04-28T06:53:53;8.03;;;2.80;;
14165;SDS011;7162;52.422;13.754;2023-04-28T06:56:20;7.73;;;3.10;;
14165;SDS011;7162;52.422;13.754;2023-04-28T06:58:51;6.60;;;3.07;;
14165;SDS011;7162;52.422;13.754;2023-04-28T07:01:18;5.13;;;2.80;;
14165;SDS011;7162;52.422;13.754;2023-04-28T07:03:45;5.20;;;2.70;;
14165;SDS011;7162;52.422;13.754;2023-04-28T07:06:12;5.73;;;3.17;;
14165;SDS011;7162;52.422;13.754;2023-04-28T07:08:42;6.40;;;2.43;;
14165;SDS011;7162;52.422;13.754;2023-04-28T07:11:09;3.53;;;2.43;;
14165;SDS011;7162;52.422;13.754;2023-04-28T07:13:36;4.10;;;2.63;;
14165;SDS011;7162;52.422;13.754;2023-04-28T07:16:03;4.10;;;2.70;;
14165;SDS011;7162;52.422;13.754;2023-04-28T07:18:30;5.20;;;3.27;;
14165;SDS011;7162;52.422;13.754;2023-04-28T07:20:57;8.50;;;2.60;;
14165;SDS011;7162;52.422;13.754;2023-04-28T07:23:24;4.57;;;3.30;;
14165;SDS011;7162;52.422;13.754;2023-04-28T07:25:52;8.27;;;2.60;;
14165;SDS011;7162;52.422;13.754;2023-04-28T07:28:19;3.73;;;2.40;;
14165;SDS011;7162;52.422;13.754;2023-04-28T07:30:46;5.03;;;2.30;;
14165;SDS011;7162;52.422;13.754;2023-04-28T07:33:13;6.77;;;3.10;;
14165;SDS011;7162;52.422;13.754;2023-04-28T07:35:40;5.80;;;3.10;;
14165;SDS011;7162;52.422;13.754;2023-04-28T07:38:07;6.50;;;3.70;;
14165;SDS011;7162;52.422;13.754;2023-04-28T07:40:34;7.50;;;3.40;;
14165;SDS011;7162;52.422;13.754;2023-04-28T07:43:02;7.13;;;3.27;;
14165;SDS011;7162;52.422;13.754;2023-04-28T07:45:29;6.47;;;3.17;;
14165;SDS011;7162;52.422;13.754;2023-04-28T07:47:56;5.53;;;3.23;;
14165;SDS011;7162;52.422;13.754;2023-04-28T07:50:23;7.23;;;3.27;;
14165;SDS011;7162;52.422;13.754;2023-04-28T07:52:50;5.53;;;2.70;;
14165;SDS011;7162;52.422;13.754;2023-04-28T07:55:17;5.10;;;3.00;;
14165;SDS011;7162;52.422;13.754;2023-04-28T07:57:44;8.00;;;3.00;;
14165;SDS011;7162;52.422;13.754;2023-04-28T08:00:13;7.43;;;3.30;;
14165;SDS011;7162;52.422;13.754;2023-04-28T08:02:41;5.60;;;3.00;;
14165;SDS011;7162;52.422;13.754;2023-04-28T08:05:08;4.40;;;3.20;;
14165;SDS011;7162;52.422;13.754;2023-04-28T08:07:53;5.20;;;2.97;;
14165;SDS011;7162;52.422;13.754;2023-04-28T08:10:20;3.50;;;2.70;;
14165;SDS011;7162;52.422;13.754;2023-04-28T08:12:47;7.30;;;3.37;;
14165;SDS011;7162;52.422;13.754;2023-04-28T08:15:16;8.17;;;3.37;;
14165;SDS011;7162;52.422;13.754;2023-04-28T08:17:43;8.53;;;3.07;;
14165;SDS011;7162;52.422;13.754;2023-04-28T08:20:11;5.80;;;3.10;;
14165;SDS011;7162;52.422;13.754;2023-04-28T08:22:39;5.20;;;3.20;;
14165;SDS011;7162;52.422;13.754;2023-04-28T08:25:06;8.40;;;3.70;;
14165;SDS011;7162;52.422;13.754;2023-04-28T08:27:35;6.87;;;3.13;;
14165;SDS011;7162;52.422;13.754;2023-04-28T08:30:06;8.63;;;3.47;;
14165;SDS011;7162;52.422;13.754;2023-04-28T08:32:35;5.27;;;3.37;;
14165;SDS011;7162;52.422;13.754;2023-04-28T08:35:02;9.00;;;3.90;;
14165;SDS011;7162;52.422;13.754;2023-04-28T08:37:29;5.97;;;3.53;;
14165;SDS011;7162;52.422;13.754;2023-04-28T08:39:56;8.03;;;3.30;;
14165;SDS011;7162;52.422;13.754;2023-04-28T08:42:28;6.97;;;3.23;;
14165;SDS011;7162;52.422;13.754;2023-04-28T08:44:56;6.80;;;3.60;;
14165;SDS011;7162;52.422;13.754;2023-04-28T08:47:25;4.70;;;3.13;;
14165;SDS011;7162;52.422;13.754;2023-04-28T08:49:55;9.83;;;4.00;;
14165;SDS011;7162;52.422;13.754;2023-04-28T08:52:26;8.60;;;3.43;;
14165;SDS011;7162;52.422;13.754;2023-04-28T08:54:55;4.43;;;3.40;;
14165;SDS011;7162;52.422;13.754;2023-04-28T08:57:23;9.83;;;3.17;;
14165;SDS011;7162;52.422;13.754;2023-04-28T08:59:52;4.37;;;2.90;;
14165;SDS011;7162;52.422;13.754;2023-04-28T09:02:19;4.83;;;2.90;;
14165;SDS011;7162;52.422;13.754;2023-04-28T09:04:46;5.80;;;3.60;;
14165;SDS011;7162;52.422;13.754;2023-04-28T09:07:15;3.60;;;2.90;;
14165;SDS011;7162;52.422;13.754;2023-04-28T09:09:41;5.33;;;3.40;;
14165;SDS011;7162;52.422;13.754;2023-04-28T09:12:09;10.67;;;3.50;;
14165;SDS011;7162;52.422;13.754;2023-04-28T09:14:36;6.83;;;3.60;;
14165;SDS011;7162;52.422;13.754;2023-04-28T09:17:08;5.37;;;3.20;;
14165;SDS011;7162;52.422;13.754;2023-04-28T09:19:35;5.10;;;3.20;;
14165;SDS011;7162;52.422;13.754;2023-04-28T09:22:03;6.33;;;3.53;;
14165;SDS011;7162;52.422;13.754;2023-04-28T09:24:32;11.33;;;3.67;;
14165;SDS011;7162;52.422;13.754;2023-04-28T09:27:01;4.53;;;3.23;;
14165;SDS011;7162;52.422;13.754;2023-04-28T09:29:28;7.93;;;3.63;;
14165;SDS011;7162;52.422;13.754;2023-04-28T09:32:11;6.67;;;3.47;;
14165;SDS011;7162;52.422;13.754;2023-04-28T09:34:41;7.50;;;3.73;;
14165;SDS011;7162;52.422;13.754;2023-04-28T09:37:13;15.07;;;6.27;;
14165;SDS011;7162;52.422;13.754;2023-04-28T09:39:42;11.30;;;6.63;;
14165;SDS011;7162;52.422;13.754;2023-04-28T09:42:09;13.90;;;5.00;;
14165;SDS011;7162;52.422;13.754;2023-04-28T09:44:35;11.77;;;5.17;;
14165;SDS011;7162;52.422;13.754;2023-04-28T09:47:07;8.70;;;4.83;;
14165;SDS011;7162;52.422;13.754;2023-04-28T09:49:52;5.93;;;4.03;;
14165;SDS011;7162;52.422;13.754;2023-04-28T09:52:20;5.20;;;3.47;;
14165;SDS011;7162;52.422;13.754;2023-04-28T09:54:49;8.90;;;3.43;;
14165;SDS011;7162;52.422;13.754;2023-04-28T09:57:16;11.07;;;3.70;;
14165;SDS011;7162;52.422;13.754;2023-04-28T09:59:44;8.47;;;3.60;;
14165;SDS011;7162;52.422;13.754;2023-04-28T10:02:13;6.83;;;3.67;;
14165;SDS011;7162;52.422;13.754;2023-04-28T10:04:40;6.53;;;3.10;;
14165;SDS011;7162;52.422;13.754;2023-04-28T10:07:08;8.90;;;4.20;;
14165;SDS011;7162;52.422;13.754;2023-04-28T10:09:35;10.10;;;3.53;;
14165;SDS011;7162;52.422;13.754;2023-04-28T10:12:03;6.00;;;4.07;;
14165;SDS011;7162;52.422;13.754;2023-04-28T10:14:31;8.13;;;3.60;;
14165;SDS011;7162;52.422;13.754;2023-04-28T10:16:58;9.30;;;3.57;;
14165;SDS011;7162;52.422;13.754;2023-04-28T10:19:27;4.80;;;3.30;;
14165;SDS011;7162;52.422;13.754;2023-04-28T10:21:55;6.17;;;3.47;;
14165;SDS011;7162;52.422;13.754;2023-04-28T10:24:28;10.70;;;4.10;;
14165;SDS011;7162;52.422;13.754;2023-04-28T10:27:04;13.37;;;3.87;;
14165;SDS011;7162;52.422;13.754;2023-04-28T10:29:33;8.40;;;3.47;;
14165;SDS011;7162;52.422;13.754;2023-04-28T10:34:46;4.80;;;3.43;;
14165;SDS011;7162;52.422;13.754;2023-04-28T10:37:13;11.63;;;3.57;;
14165;SDS011;7162;52.422;13.754;2023-04-28T10:45:15;6.70;;;3.90;;
14165;SDS011;7162;52.422;13.754;2023-04-28T10:48:02;11.23;;;4.30;;
14165;SDS011;7162;52.422;13.754;2023-04-28T10:50:30;7.50;;;4.20;;
14165;SDS011;7162;52.422;13.754;2023-04-28T10:52:57;6.50;;;3.90;;
14165;SDS011;7162;52.422;13.754;2023-04-28T10:55:31;11.77;;;3.83;;
14165;SDS011;7162;52.422;13.754;2023-04-28T11:00:48;6.17;;;3.60;;
14165;SDS011;7162;52.422;13.754;2023-04-28T11:03:37;14.70;;;4.03;;
14165;SDS011;7162;52.422;13.754;2023-04-28T11:06:17;15.67;;;4.40;;
14165;SDS011;7162;52.422;13.754;2023-04-28T11:08:44;11.03;;;5.10;;
14165;SDS011;7162;52.422;13.754;2023-04-28T11:11:12;13.13;;;4.50;;
14165;SDS011;7162;52.422;13.754;2023-04-28T11:13:39;8.33;;;4.40;;
14165;SDS011;7162;52.422;13.754;2023-04-28T11:16:07;8.20;;;3.80;;
14165;SDS011;7162;52.422;13.754;2023-04-28T11:18:37;8.70;;;5.60;;
14165;SDS011;7162;52.422;13.754;2023-04-28T11:21:14;9.10;;;4.53;;
14165;SDS011;7162;52.422;13.754;2023-04-28T11:23:41;8.47;;;4.10;;
14165;SDS011;7162;52.422;13.754;2023-04-28T11:26:09;9.87;;;4.23;;
14165;SDS011;7162;52.422;13.754;2023-04-28T11:28:42;8.90;;;4.27;;
14165;SDS011;7162;52.422;13.754;2023-04-28T11:31:13;7.73;;;4.27;;
14165;SDS011;7162;52.422;13.754;2023-04-28T11:33:43;9.73;;;4.33;;
14165;SDS011;7162;52.422;13.754;2023-04-28T11:36:20;8.90;;;3.60;;
14165;SDS011;7162;52.422;13.754;2023-04-28T11:38:47;13.10;;;3.90;;
14165;SDS011;7162;52.422;13.754;2023-04-28T11:41:14;12.00;;;4.17;;
14165;SDS011;7162;52.422;13.754;2023-04-28T11:43:41;9.67;;;4.90;;
14165;SDS011;7162;52.422;13.754;2023-04-28T11:46:09;9.60;;;3.87;;
14165;SDS011;7162;52.422;13.754;2023-04-28T11:48:37;7.60;;;4.53;;
14165;SDS011;7162;52.422;13.754;2023-04-28T11:51:04;13.57;;;4.97;;
14165;SDS011;7162;52.422;13.754;2023-04-28T11:53:41;8.47;;;3.83;;
14165;SDS011;7162;52.422;13.754;2023-04-28T11:56:08;6.70;;;4.23;;
14165;SDS011;7162;52.422;13.754;2023-04-28T11:58:36;6.17;;;4.03;;
14165;SDS011;7162;52.422;13.754;2023-04-28T12:01:06;4.50;;;3.87;;
14165;SDS011;7162;52.422;13.754;2023-04-28T12:03:42;10.53;;;4.20;;
14165;SDS011;7162;52.422;13.754;2023-04-28T12:06:09;5.90;;;4.03;;
14165;SDS011;7162;52.422;13.754;2023-04-28T12:08:36;11.47;;;4.00;;
14165;SDS011;7162;52.422;13.754;2023-04-28T12:11:06;6.70;;;3.70;;
14165;SDS011;7162;52.422;13.754;2023-04-28T12:13:34;8.13;;;4.27;;
14165;SDS011;7162;52.422;13.754;2023-04-28T12:16:02;6.43;;;3.80;;
14165;SDS011;7162;52.422;13.754;2023-04-28T12:18:30;7.33;;;3.93;;
14165;SDS011;7162;52.422;13.754;2023-04-28T12:20:59;5.53;;;4.07;;
14165;SDS011;7162;52.422;13.754;2023-04-28T12:23:29;8.00;;;4.43;;
14165;SDS011;7162;52.422;13.754;2023-04-28T12:25:56;8.67;;;4.53;;
14165;SDS011;7162;52.422;13.754;2023-04-28T12:28:34;9.97;;;4.37;;
14165;SDS011;7162;52.422;13.754;2023-04-28T12:31:02;13.47;;;4.47;;
14165;SDS011;7162;52.422;13.754;2023-04-28T12:33:29;9.57;;;3.90;;
14165;SDS011;7162;52.422;13.754;2023-04-28T12:35:59;15.50;;;5.10;;
14165;SDS011;7162;52.422;13.754;2023-04-28T12:38:26;9.73;;;4.00;;
14165;SDS011;7162;52.422;13.754;2023-04-28T12:40:53;7.43;;;3.83;;
14165;SDS011;7162;52.422;13.754;2023-04-28T12:43:20;9.20;;;4.50;;
14165;SDS011;7162;52.422;13.754;2023-04-28T12:45:48;9.30;;;5.07;;
14165;SDS011;7162;52.422;13.754;2023-04-28T12:48:16;7.20;;;4.33;;
14165;SDS011;7162;52.422;13.754;2023-04-28T12:50:44;7.17;;;4.30;;
14165;SDS011;7162;52.422;13.754;2023-04-28T12:53:12;8.40;;;4.07;;
14165;SDS011;7162;52.422;13.754;2023-04-28T12:55:39;15.87;;;5.07;;
14165;SDS011;7162;52.422;13.754;2023-04-28T12:58:07;9.60;;;4.83;;
14165;SDS011;7162;52.422;13.754;2023-04-28T13:00:34;8.47;;;4.67;;
14165;SDS011;7162;52.422;13.754;2023-04-28T13:03:01;8.90;;;4.50;;
14165;SDS011;7162;52.422;13.754;2023-04-28T13:05:28;10.40;;;5.40;;
14165;SDS011;7162;52.422;13.754;2023-04-28T13:07:56;11.00;;;4.80;;
14165;SDS011;7162;52.422;13.754;2023-04-28T13:10:25;9.50;;;6.00;;
14165;SDS011;7162;52.422;13.754;2023-04-28T13:12:52;6.10;;;4.50;;
14165;SDS011;7162;52.422;13.754;2023-04-28T13:15:19;9.50;;;4.97;;
14165;SDS011;7162;52.422;13.754;2023-04-28T13:17:46;11.27;;;5.43;;
14165;SDS011;7162;52.422;13.754;2023-04-28T13:20:14;11.47;;;5.73;;
14165;SDS011;7162;52.422;13.754;2023-04-28T13:22:41;12.67;;;4.53;;
14165;SDS011;7162;52.422;13.754;2023-04-28T13:25:08;7.90;;;5.00;;
14165;SDS011;7162;52.422;13.754;2023-04-28T13:27:36;10.10;;;5.33;;
14165;SDS011;7162;52.422;13.754;2023-04-28T13:30:04;7.10;;;4.27;;
14165;SDS011;7162;52.422;13.754;2023-04-28T13:32:32;6.23;;;4.30;;
14165;SDS011;7162;52.422;13.754;2023-04-28T13:34:59;20.07;;;6.90;;
14165;SDS011;7162;52.422;13.754;2023-04-28T13:37:26;9.63;;;5.87;;
14165;SDS011;7162;52.422;13.754;2023-04-28T13:39:53;13.67;;;5.67;;
14165;SDS011;7162;52.422;13.754;2023-04-28T13:42:22;8.67;;;3.93;;
14165;SDS011;7162;52.422;13.754;2023-04-28T13:44:50;10.50;;;4.80;;
14165;SDS011;7162;52.422;13.754;2023-04-28T13:47:17;12.20;;;5.07;;
14165;SDS011;7162;52.422;13.754;2023-04-28T13:49:44;9.97;;;6.33;;
14165;SDS011;7162;52.422;13.754;2023-04-28T13:52:11;7.17;;;4.20;;
14165;SDS011;7162;52.422;13.754;2023-04-28T13:54:40;7.87;;;4.53;;
14165;SDS011;7162;52.422;13.754;2023-04-28T13:57:07;10.87;;;5.47;;
14165;SDS011;7162;52.422;13.754;2023-04-28T13:59:37;7.43;;;4.13;;
14165;SDS011;7162;52.422;13.754;2023-04-28T14:02:05;10.40;;;3.70;;
14165;SDS011;7162;52.422;13.754;2023-04-28T14:04:33;10.37;;;4.20;;
14165;SDS011;7162;52.422;13.754;2023-04-28T14:07:00;20.63;;;11.00;;
14165;SDS011;7162;52.422;13.754;2023-04-28T14:09:27;12.30;;;4.43;;
14165;SDS011;7162;52.422;13.754;2023-04-28T14:11:54;6.50;;;4.43;;
14165;SDS011;7162;52.422;13.754;2023-04-28T14:14:22;7.10;;;4.00;;
14165;SDS011;7162;52.422;13.754;2023-04-28T14:16:49;8.67;;;4.37;;
14165;SDS011;7162;52.422;13.754;2023-04-28T14:19:17;7.97;;;5.10;;
14165;SDS011;7162;52.422;13.754;2023-04-28T14:21:45;7.73;;;4.83;;
14165;SDS011;7162;52.422;13.754;2023-04-28T14:24:12;11.20;;;4.40;;
14165;SDS011;7162;52.422;13.754;2023-04-28T14:26:39;8.70;;;5.03;;
14165;SDS011;7162;52.422;13.754;2023-04-28T14:29:07;8.83;;;4.13;;
14165;SDS011;7162;52.422;13.754;2023-04-28T14:31:34;8.20;;;4.30;;
14165;SDS011;7162;52.422;13.754;2023-04-28T14:34:02;6.10;;;3.60;;
14165;SDS011;7162;52.422;13.754;2023-04-28T14:36:30;9.77;;;3.80;;
14165;SDS011;7162;52.422;13.754;2023-04-28T14:38:57;12.17;;;4.60;;
14165;SDS011;7162;52.422;13.754;2023-04-28T14:41:25;7.60;;;4.70;;
14165;SDS011;7162;52.422;13.754;2023-04-28T14:43:52;10.13;;;4.13;;
14165;SDS011;7162;52.422;13.754;2023-04-28T14:46:19;6.97;;;3.53;;
14165;SDS011;7162;52.422;13.754;2023-04-28T14:48:47;12.03;;;6.23;;
14165;SDS011;7162;52.422;13.754;2023-04-28T14:51:15;16.30;;;6.80;;
14165;SDS011;7162;52.422;13.754;2023-04-28T14:53:43;8.17;;;4.30;;
14165;SDS011;7162;52.422;13.754;2023-04-28T14:56:11;5.80;;;3.83;;
14165;SDS011;7162;52.422;13.754;2023-04-28T14:58:38;10.70;;;4.77;;
14165;SDS011;7162;52.422;13.754;2023-04-28T15:01:04;6.43;;;3.60;;